sensor_id;sensor_type;location;lat;lon;timestamp;pressure;altitude;pressure_sealevel;temperature;humidity
7824;BME280;3957;48.61947800;9.05303100;2023-06-14T00:00:33;95610.34;;;11.95;65.25
7824;BME280;3957;48.61947800;9.05303100;2023-06-14T00:01:36;95612.84;;;11.90;66.31
7824;BME280;3957;48.61947800;9.05303100;2023-06-14T00:02:39;95618.66;;;11.87;67.86
7824;BME280;3957;48.61947800;9.05303100;2023-06-14T00:03:41;95616.88;;;11.81;68.78
7824;BME280;3957;48.61947800;9.05303100;2023-06-14T00:04:43;95627.22;;;11.77;68.68
7824;BME280;3957;48.61947800;9.05303100;2023-06-14T00:05:45;95624.63;;;11.70;69.32
7824;BME280;3957;48.61947800;9.05303100;2023-06-14T00:06:47;95620.75;;;11.66;67.97
7824;BME280;3957;48.61947800;9.05303100;2023-06-14T00:07:52;95624.22;;;11.67;64.71
7824;BME280;3957;48.61947800;9.05303100;2023-06-14T00:08:54;95621.19;;;11.63;63.10
7824;BME280;3957;48.61947800;9.05303100;2023-06-14T00:09:56;95618.13;;;11.60;64.07
7824;BME280;3957;48.61947800;9.05303100;2023-06-14T00:10:57;95618.56;;;11.56;65.44
7824;BME280;3957;48.61947800;9.05303100;2023-06-14T00:11:59;95617.16;;;11.54;64.94
7824;BME280;3957;48.61947800;9.05303100;2023-06-14T00:13:02;95623.53;;;11.53;65.67
7824;BME280;3957;48.61947800;9.05303100;2023-06-14T00:14:03;95620.28;;;11.51;66.57
7824;BME280;3957;48.61947800;9.05303100;2023-06-14T00:15:06;95626.31;;;11.46;66.70
7824;BME280;3957;48.61947800;9.05303100;2023-06-14T00:16:07;95622.22;;;11.44;67.73
7824;BME280;3957;48.61947800;9.05303100;2023-06-14T00:17:09;95624.88;;;11.44;70.66
7824;BME280;3957;48.61947800;9.05303100;2023-06-14T00:18:11;95620.34;;;11.44;74.85
7824;BME280;3957;48.61947800;9.05303100;2023-06-14T00:19:13;95622.63;;;11.40;75.32
7824;BME280;3957;48.61947800;9.05303100;2023-06-14T00:20:15;95627.84;;;11.35;74.03
7824;BME280;3957;48.61947800;9.05303100;2023-06-14T00:21:17;95619.19;;;11.33;74.63
7824;BME280;3957;48.61947800;9.05303100;2023-06-14T00:22:19;95622.53;;;11.29;76.52
7824;BME280;3957;48.61947800;9.05303100;2023-06-14T00:23:21;95627.94;;;11.22;77.22
7824;BME280;3957;48.61947800;9.05303100;2023-06-14T00:24:23;95623.84;;;11.19;76.34
7824;BME280;3957;48.61947800;9.05303100;2023-06-14T00:25:25;95622.81;;;11.20;74.13
7824;BME280;3957;48.61947800;9.05303100;2023-06-14T00:26:30;95620.94;;;11.21;69.97
7824;BME280;3957;48.61947800;9.05303100;2023-06-14T00:27:32;95617.00;;;11.23;68.25
7824;BME280;3957;48.61947800;9.05303100;2023-06-14T00:28:33;95614.94;;;11.26;67.50
7824;BME280;3957;48.61947800;9.05303100;2023-06-14T00:29:35;95614.94;;;11.26;67.69
7824;BME280;3957;48.61947800;9.05303100;2023-06-14T00:30:38;95614.28;;;11.30;68.87
7824;BME280;3957;48.61947800;9.05303100;2023-06-14T00:31:39;95620.22;;;11.32;69.75
7824;BME280;3957;48.61947800;9.05303100;2023-06-14T00:32:41;95613.78;;;11.40;67.37
7824;BME280;3957;48.61947800;9.05303100;2023-06-14T00:33:44;95619.13;;;11.40;66.96
7824;BME280;3957;48.61947800;9.05303100;2023-06-14T00:34:46;95611.72;;;11.42;66.55
7824;BME280;3957;48.61947800;9.05303100;2023-06-14T00:35:48;95612.06;;;11.46;68.25
7824;BME280;3957;48.61947800;9.05303100;2023-06-14T00:36:49;95613.50;;;11.48;72.72
7824;BME280;3957;48.61947800;9.05303100;2023-06-14T00:37:51;95613.56;;;11.42;72.04
7824;BME280;3957;48.61947800;9.05303100;2023-06-14T00:38:52;95607.97;;;11.43;70.96
7824;BME280;3957;48.61947800;9.05303100;2023-06-14T00:39:56;95611.03;;;11.47;69.85
7824;BME280;3957;48.61947800;9.05303100;2023-06-14T00:40:57;95603.06;;;11.40;71.66
7824;BME280;3957;48.61947800;9.05303100;2023-06-14T00:41:59;95607.44;;;11.34;71.33
7824;BME280;3957;48.61947800;9.05303100;2023-06-14T00:43:01;95609.50;;;11.32;70.58
7824;BME280;3957;48.61947800;9.05303100;2023-06-14T00:44:02;95609.50;;;11.32;70.40
7824;BME280;3957;48.61947800;9.05303100;2023-06-14T00:45:04;95608.94;;;11.30;70.37
7824;BME280;3957;48.61947800;9.05303100;2023-06-14T00:46:06;95612.06;;;11.27;69.12
7824;BME280;3957;48.61947800;9.05303100;2023-06-14T00:47:08;95606.84;;;11.32;68.39
7824;BME280;3957;48.61947800;9.05303100;2023-06-14T00:48:10;95609.16;;;11.29;69.47
7824;BME280;3957;48.61947800;9.05303100;2023-06-14T00:49:14;95613.88;;;11.27;68.91
7824;BME280;3957;48.61947800;9.05303100;2023-06-14T00:50:17;95611.44;;;11.25;67.32
7824;BME280;3957;48.61947800;9.05303100;2023-06-14T00:51:19;95613.53;;;11.23;68.90
7824;BME280;3957;48.61947800;9.05303100;2023-06-14T00:52:22;95609.78;;;11.24;71.24
7824;BME280;3957;48.61947800;9.05303100;2023-06-14T00:53:25;95611.72;;;11.17;70.56
7824;BME280;3957;48.61947800;9.05303100;2023-06-14T00:54:27;95610.28;;;11.14;70.14
7824;BME280;3957;48.61947800;9.05303100;2023-06-14T00:55:28;95609.25;;;11.15;71.23
7824;BME280;3957;48.61947800;9.05303100;2023-06-14T00:56:30;95604.94;;;11.14;71.11
7824;BME280;3957;48.61947800;9.05303100;2023-06-14T00:57:32;95606.22;;;11.12;69.97
7824;BME280;3957;48.61947800;9.05303100;2023-06-14T00:58:33;95608.06;;;11.11;70.30
7824;BME280;3957;48.61947800;9.05303100;2023-06-14T00:59:40;95616.31;;;11.10;71.07
7824;BME280;3957;48.61947800;9.05303100;2023-06-14T01:00:43;95612.44;;;11.05;72.84
7824;BME280;3957;48.61947800;9.05303100;2023-06-14T01:01:45;95617.63;;;11.00;75.50
7824;BME280;3957;48.61947800;9.05303100;2023-06-14T01:02:47;95613.50;;;10.98;76.66
7824;BME280;3957;48.61947800;9.05303100;2023-06-14T01:03:49;95610.63;;;10.99;75.15
7824;BME280;3957;48.61947800;9.05303100;2023-06-14T01:04:53;95608.59;;;10.95;75.08
7824;BME280;3957;48.61947800;9.05303100;2023-06-14T01:11:27;95613.78;;;10.89;76.05
7824;BME280;3957;48.61947800;9.05303100;2023-06-14T01:12:43;95619.09;;;10.96;76.58
7824;BME280;3957;48.61947800;9.05303100;2023-06-14T01:13:48;95611.72;;;10.92;76.19
7824;BME280;3957;48.61947800;9.05303100;2023-06-14T01:14:51;95608.41;;;10.89;74.10
7824;BME280;3957;48.61947800;9.05303100;2023-06-14T01:15:55;95605.97;;;10.88;71.65
7824;BME280;3957;48.61947800;9.05303100;2023-06-14T01:16:58;95608.66;;;10.88;70.29
7824;BME280;3957;48.61947800;9.05303100;2023-06-14T01:18:01;95608.41;;;10.89;69.67
7824;BME280;3957;48.61947800;9.05303100;2023-06-14T01:19:10;95606.53;;;10.97;70.16
7824;BME280;3957;48.61947800;9.05303100;2023-06-14T01:20:15;95608.50;;;11.08;69.48
7824;BME280;3957;48.61947800;9.05303100;2023-06-14T01:21:23;95614.06;;;11.06;72.94
7824;BME280;3957;48.61947800;9.05303100;2023-06-14T01:22:26;95607.53;;;11.02;72.45
7824;BME280;3957;48.61947800;9.05303100;2023-06-14T01:23:29;95609.00;;;10.98;74.71
7824;BME280;3957;48.61947800;9.05303100;2023-06-14T01:24:33;95607.41;;;10.91;76.54
7824;BME280;3957;48.61947800;9.05303100;2023-06-14T01:25:36;95607.03;;;10.87;75.29
7824;BME280;3957;48.61947800;9.05303100;2023-06-14T01:26:39;95602.94;;;10.84;75.89
7824;BME280;3957;48.61947800;9.05303100;2023-06-14T01:27:49;95605.66;;;10.78;76.24
7824;BME280;3957;48.61947800;9.05303100;2023-06-14T01:28:52;95616.78;;;10.75;76.18
7824;BME280;3957;48.61947800;9.05303100;2023-06-14T01:30:00;95622.19;;;10.68;76.59
7824;BME280;3957;48.61947800;9.05303100;2023-06-14T01:31:03;95615.84;;;10.62;77.70
7824;BME280;3957;48.61947800;9.05303100;2023-06-14T01:32:07;95613.56;;;10.59;77.53
7824;BME280;3957;48.61947800;9.05303100;2023-06-14T01:33:09;95619.56;;;10.54;77.04
7824;BME280;3957;48.61947800;9.05303100;2023-06-14T01:34:11;95611.38;;;10.49;76.34
7824;BME280;3957;48.61947800;9.05303100;2023-06-14T01:35:13;95614.84;;;10.57;76.88
7824;BME280;3957;48.61947800;9.05303100;2023-06-14T01:36:17;95612.38;;;10.55;79.93
7824;BME280;3957;48.61947800;9.05303100;2023-06-14T01:37:20;95615.47;;;10.52;80.16
7824;BME280;3957;48.61947800;9.05303100;2023-06-14T01:38:25;95617.13;;;10.53;77.29
7824;BME280;3957;48.61947800;9.05303100;2023-06-14T01:39:27;95616.91;;;10.54;75.46
7824;BME280;3957;48.61947800;9.05303100;2023-06-14T01:40:30;95615.44;;;10.59;75.72
7824;BME280;3957;48.61947800;9.05303100;2023-06-14T01:41:34;95617.09;;;10.60;76.10
7824;BME280;3957;48.61947800;9.05303100;2023-06-14T01:42:38;95615.63;;;10.64;78.49
7824;BME280;3957;48.61947800;9.05303100;2023-06-14T01:43:41;95613.53;;;10.66;77.11
7824;BME280;3957;48.61947800;9.05303100;2023-06-14T01:44:44;95607.19;;;10.60;78.63
7824;BME280;3957;48.61947800;9.05303100;2023-06-14T01:45:48;95611.94;;;10.58;78.76
7824;BME280;3957;48.61947800;9.05303100;2023-06-14T01:46:50;95619.34;;;10.56;77.52
7824;BME280;3957;48.61947800;9.05303100;2023-06-14T01:47:52;95610.75;;;10.54;75.81
7824;BME280;3957;48.61947800;9.05303100;2023-06-14T01:48:54;95613.41;;;10.54;74.41
7824;BME280;3957;48.61947800;9.05303100;2023-06-14T01:49:56;95609.72;;;10.55;74.13
7824;BME280;3957;48.61947800;9.05303100;2023-06-14T01:50:57;95612.56;;;10.53;73.75
7824;BME280;3957;48.61947800;9.05303100;2023-06-14T01:52:00;95613.41;;;10.54;73.99
7824;BME280;3957;48.61947800;9.05303100;2023-06-14T01:53:02;95612.97;;;10.57;75.48
7824;BME280;3957;48.61947800;9.05303100;2023-06-14T01:54:04;95612.38;;;10.55;77.41
7824;BME280;3957;48.61947800;9.05303100;2023-06-14T01:55:06;95606.81;;;10.57;78.40
7824;BME280;3957;48.61947800;9.05303100;2023-06-14T01:56:09;95605.75;;;10.58;80.41
7824;BME280;3957;48.61947800;9.05303100;2023-06-14T01:57:12;95607.03;;;10.55;79.94
7824;BME280;3957;48.61947800;9.05303100;2023-06-14T01:58:14;95609.09;;;10.53;79.69
7824;BME280;3957;48.61947800;9.05303100;2023-06-14T01:59:17;95611.38;;;10.49;79.73
7824;BME280;3957;48.61947800;9.05303100;2023-06-14T02:00:19;95607.28;;;10.47;78.03
7824;BME280;3957;48.61947800;9.05303100;2023-06-14T02:01:21;95606.47;;;10.46;78.54
7824;BME280;3957;48.61947800;9.05303100;2023-06-14T02:02:23;95612.22;;;10.50;78.66
7824;BME280;3957;48.61947800;9.05303100;2023-06-14T02:03:25;95613.44;;;10.47;77.95
7824;BME280;3957;48.61947800;9.05303100;2023-06-14T02:04:26;95612.47;;;10.42;77.40
7824;BME280;3957;48.61947800;9.05303100;2023-06-14T02:05:28;95613.47;;;10.41;75.91
7824;BME280;3957;48.61947800;9.05303100;2023-06-14T02:06:30;95610.22;;;10.38;73.68
7824;BME280;3957;48.61947800;9.05303100;2023-06-14T02:07:31;95615.34;;;10.40;73.87
7824;BME280;3957;48.61947800;9.05303100;2023-06-14T02:08:33;95618.63;;;10.42;74.41
7824;BME280;3957;48.61947800;9.05303100;2023-06-14T02:09:35;95621.69;;;10.46;73.63
7824;BME280;3957;48.61947800;9.05303100;2023-06-14T02:10:37;95613.66;;;10.46;74.34
7824;BME280;3957;48.61947800;9.05303100;2023-06-14T02:11:38;95620.84;;;10.45;73.49
7824;BME280;3957;48.61947800;9.05303100;2023-06-14T02:12:40;95617.38;;;10.45;74.27
7824;BME280;3957;48.61947800;9.05303100;2023-06-14T02:13:42;95615.50;;;10.45;74.04
7824;BME280;3957;48.61947800;9.05303100;2023-06-14T02:14:45;95617.16;;;10.46;73.83
7824;BME280;3957;48.61947800;9.05303100;2023-06-14T02:15:46;95617.81;;;10.42;74.99
7824;BME280;3957;48.61947800;9.05303100;2023-06-14T02:16:49;95612.69;;;10.40;76.66
7824;BME280;3957;48.61947800;9.05303100;2023-06-14T02:17:52;95614.13;;;10.36;77.78
7824;BME280;3957;48.61947800;9.05303100;2023-06-14T02:18:55;95611.84;;;10.40;78.42
7824;BME280;3957;48.61947800;9.05303100;2023-06-14T02:19:57;95609.16;;;10.40;77.42
7824;BME280;3957;48.61947800;9.05303100;2023-06-14T02:21:00;95612.69;;;10.40;74.73
7824;BME280;3957;48.61947800;9.05303100;2023-06-14T02:22:01;95612.25;;;10.43;72.92
7824;BME280;3957;48.61947800;9.05303100;2023-06-14T02:23:03;95621.88;;;10.51;71.04
7824;BME280;3957;48.61947800;9.05303100;2023-06-14T02:24:05;95612.19;;;10.57;70.56
7824;BME280;3957;48.61947800;9.05303100;2023-06-14T02:25:08;95608.84;;;10.61;68.71
7824;BME280;3957;48.61947800;9.05303100;2023-06-14T02:26:09;95621.78;;;10.64;69.02
7824;BME280;3957;48.61947800;9.05303100;2023-06-14T02:27:11;95616.44;;;10.64;69.17
7824;BME280;3957;48.61947800;9.05303100;2023-06-14T02:28:13;95615.81;;;10.69;69.18
7824;BME280;3957;48.61947800;9.05303100;2023-06-14T02:29:15;95613.28;;;10.74;69.34
7824;BME280;3957;48.61947800;9.05303100;2023-06-14T02:30:17;95614.69;;;10.77;68.88
7824;BME280;3957;48.61947800;9.05303100;2023-06-14T02:31:19;95612.25;;;10.75;68.39
7824;BME280;3957;48.61947800;9.05303100;2023-06-14T02:32:23;95610.81;;;10.72;68.96
7824;BME280;3957;48.61947800;9.05303100;2023-06-14T02:33:24;95612.91;;;10.70;69.33
7824;BME280;3957;48.61947800;9.05303100;2023-06-14T02:34:26;95613.13;;;10.69;70.13
7824;BME280;3957;48.61947800;9.05303100;2023-06-14T02:35:30;95607.59;;;10.64;70.14
7824;BME280;3957;48.61947800;9.05303100;2023-06-14T02:36:31;95610.25;;;10.64;70.56
7824;BME280;3957;48.61947800;9.05303100;2023-06-14T02:37:34;95608.03;;;10.61;70.73
7824;BME280;3957;48.61947800;9.05303100;2023-06-14T02:38:36;95612.31;;;10.62;71.03
7824;BME280;3957;48.61947800;9.05303100;2023-06-14T02:39:38;95612.53;;;10.60;71.38
7824;BME280;3957;48.61947800;9.05303100;2023-06-14T02:40:39;95609.72;;;10.55;71.94
7824;BME280;3957;48.61947800;9.05303100;2023-06-14T02:41:43;95611.78;;;10.53;73.14
7824;BME280;3957;48.61947800;9.05303100;2023-06-14T02:42:45;95609.75;;;10.48;72.85
7824;BME280;3957;48.61947800;9.05303100;2023-06-14T02:43:47;95610.16;;;10.45;72.30
7824;BME280;3957;48.61947800;9.05303100;2023-06-14T02:44:48;95603.19;;;10.44;73.69
7824;BME280;3957;48.61947800;9.05303100;2023-06-14T02:45:52;95603.59;;;10.41;74.23
7824;BME280;3957;48.61947800;9.05303100;2023-06-14T02:46:55;95604.66;;;10.40;74.15
7824;BME280;3957;48.61947800;9.05303100;2023-06-14T02:47:57;95611.84;;;10.40;74.03
7824;BME280;3957;48.61947800;9.05303100;2023-06-14T02:48:59;95612.28;;;10.36;73.58
7824;BME280;3957;48.61947800;9.05303100;2023-06-14T02:50:01;95614.13;;;10.36;73.66
7824;BME280;3957;48.61947800;9.05303100;2023-06-14T02:51:03;95613.69;;;10.32;74.21
7824;BME280;3957;48.61947800;9.05303100;2023-06-14T02:52:05;95604.25;;;10.30;73.98
7824;BME280;3957;48.61947800;9.05303100;2023-06-14T02:53:07;95606.56;;;10.26;74.31
7824;BME280;3957;48.61947800;9.05303100;2023-06-14T02:54:10;95609.41;;;10.25;75.13
7824;BME280;3957;48.61947800;9.05303100;2023-06-14T02:55:13;95608.81;;;10.23;76.23
7824;BME280;3957;48.61947800;9.05303100;2023-06-14T02:56:15;95605.16;;;10.17;76.81
7824;BME280;3957;48.61947800;9.05303100;2023-06-14T02:57:22;95603.28;;;10.17;76.13
7824;BME280;3957;48.61947800;9.05303100;2023-06-14T02:58:24;95601.44;;;10.18;76.54
7824;BME280;3957;48.61947800;9.05303100;2023-06-14T02:59:26;95607.59;;;10.18;76.94
7824;BME280;3957;48.61947800;9.05303100;2023-06-14T03:00:29;95600.59;;;10.17;75.60
7824;BME280;3957;48.61947800;9.05303100;2023-06-14T03:01:32;95606.38;;;10.14;76.68
7824;BME280;3957;48.61947800;9.05303100;2023-06-14T03:02:41;95607.81;;;10.17;76.22
7824;BME280;3957;48.61947800;9.05303100;2023-06-14T03:03:44;95605.16;;;10.10;74.62
7824;BME280;3957;48.61947800;9.05303100;2023-06-14T03:04:46;95600.63;;;10.11;75.72
7824;BME280;3957;48.61947800;9.05303100;2023-06-14T03:05:50;95607.63;;;10.12;76.16
7824;BME280;3957;48.61947800;9.05303100;2023-06-14T03:06:56;95602.28;;;10.12;76.84
7824;BME280;3957;48.61947800;9.05303100;2023-06-14T03:07:58;95599.81;;;10.10;79.69
7824;BME280;3957;48.61947800;9.05303100;2023-06-14T03:09:01;95603.75;;;10.08;80.25
7824;BME280;3957;48.61947800;9.05303100;2023-06-14T03:10:08;95604.16;;;10.04;78.52
7824;BME280;3957;48.61947800;9.05303100;2023-06-14T03:11:16;95603.75;;;10.01;78.29
7824;BME280;3957;48.61947800;9.05303100;2023-06-14T03:12:22;95607.69;;;9.98;78.31
7824;BME280;3957;48.61947800;9.05303100;2023-06-14T03:13:25;95604.63;;;9.95;78.17
7824;BME280;3957;48.61947800;9.05303100;2023-06-14T03:14:27;95605.88;;;9.92;78.09
7824;BME280;3957;48.61947800;9.05303100;2023-06-14T03:15:31;95611.63;;;9.89;77.69
7824;BME280;3957;48.61947800;9.05303100;2023-06-14T03:16:32;95607.91;;;9.90;78.69
7824;BME280;3957;48.61947800;9.05303100;2023-06-14T03:17:34;95612.22;;;9.91;79.21
7824;BME280;3957;48.61947800;9.05303100;2023-06-14T03:18:41;95606.69;;;9.93;79.37
7824;BME280;3957;48.61947800;9.05303100;2023-06-14T03:19:43;95612.84;;;9.93;76.76
7824;BME280;3957;48.61947800;9.05303100;2023-06-14T03:20:45;95614.47;;;9.94;77.06
7824;BME280;3957;48.61947800;9.05303100;2023-06-14T03:21:47;95616.13;;;9.95;76.38
7824;BME280;3957;48.61947800;9.05303100;2023-06-14T03:22:49;95612.84;;;10.00;76.91
7824;BME280;3957;48.61947800;9.05303100;2023-06-14T03:23:51;95617.97;;;10.01;76.25
7824;BME280;3957;48.61947800;9.05303100;2023-06-14T03:24:53;95622.88;;;10.04;76.99
7824;BME280;3957;48.61947800;9.05303100;2023-06-14T03:25:56;95621.03;;;10.05;76.90
7824;BME280;3957;48.61947800;9.05303100;2023-06-14T03:26:58;95618.97;;;10.07;77.97
7824;BME280;3957;48.61947800;9.05303100;2023-06-14T03:28:02;95618.13;;;10.07;77.21
7824;BME280;3957;48.61947800;9.05303100;2023-06-14T03:29:04;95620.81;;;10.07;76.96
7824;BME280;3957;48.61947800;9.05303100;2023-06-14T03:30:06;95623.28;;;10.08;78.86
7824;BME280;3957;48.61947800;9.05303100;2023-06-14T03:31:09;95628.22;;;10.11;79.13
7824;BME280;3957;48.61947800;9.05303100;2023-06-14T03:32:11;95631.69;;;10.12;79.45
7824;BME280;3957;48.61947800;9.05303100;2023-06-14T03:33:17;95629.44;;;10.15;79.47
7824;BME280;3957;48.61947800;9.05303100;2023-06-14T03:34:19;95628.59;;;10.15;79.79
7824;BME280;3957;48.61947800;9.05303100;2023-06-14T03:35:21;95625.31;;;10.13;80.56
7824;BME280;3957;48.61947800;9.05303100;2023-06-14T03:36:23;95630.66;;;10.13;80.05
7824;BME280;3957;48.61947800;9.05303100;2023-06-14T03:37:25;95629.22;;;10.10;80.24
7824;BME280;3957;48.61947800;9.05303100;2023-06-14T03:38:26;95629.44;;;10.09;79.51
7824;BME280;3957;48.61947800;9.05303100;2023-06-14T03:39:29;95634.38;;;10.12;79.12
7824;BME280;3957;48.61947800;9.05303100;2023-06-14T03:40:30;95632.53;;;10.12;77.80
7824;BME280;3957;48.61947800;9.05303100;2023-06-14T03:41:36;95633.56;;;10.11;77.32
7824;BME280;3957;48.61947800;9.05303100;2023-06-14T03:42:38;95631.69;;;10.12;75.45
7824;BME280;3957;48.61947800;9.05303100;2023-06-14T03:43:40;95626.13;;;10.13;75.74
7824;BME280;3957;48.61947800;9.05303100;2023-06-14T03:44:42;95629.41;;;10.22;75.54
7824;BME280;3957;48.61947800;9.05303100;2023-06-14T03:45:43;95631.03;;;10.23;75.62
7824;BME280;3957;48.61947800;9.05303100;2023-06-14T03:46:46;95635.56;;;10.23;76.24
7824;BME280;3957;48.61947800;9.05303100;2023-06-14T03:47:48;95639.22;;;10.28;75.22
7824;BME280;3957;48.61947800;9.05303100;2023-06-14T03:48:50;95636.78;;;10.27;74.20
7824;BME280;3957;48.61947800;9.05303100;2023-06-14T03:49:52;95634.09;;;10.27;75.00
7824;BME280;3957;48.61947800;9.05303100;2023-06-14T03:50:54;95638.22;;;10.29;75.16
7824;BME280;3957;48.61947800;9.05303100;2023-06-14T03:52:01;95640.22;;;10.34;74.74
7824;BME280;3957;48.61947800;9.05303100;2023-06-14T03:53:05;95642.50;;;10.37;75.21
7824;BME280;3957;48.61947800;9.05303100;2023-06-14T03:54:06;95641.25;;;10.40;75.00
7824;BME280;3957;48.61947800;9.05303100;2023-06-14T03:55:29;95647.66;;;10.38;74.75
7824;BME280;3957;48.61947800;9.05303100;2023-06-14T03:56:36;95643.94;;;10.40;75.15
7824;BME280;3957;48.61947800;9.05303100;2023-06-14T03:57:40;95642.31;;;10.38;76.49
7824;BME280;3957;48.61947800;9.05303100;2023-06-14T03:58:46;95644.78;;;10.40;76.75
7824;BME280;3957;48.61947800;9.05303100;2023-06-14T03:59:47;95640.41;;;10.46;76.95
7824;BME280;3957;48.61947800;9.05303100;2023-06-14T04:00:49;95648.00;;;10.49;76.14
7824;BME280;3957;48.61947800;9.05303100;2023-06-14T04:01:51;95651.50;;;10.49;76.06
7824;BME280;3957;48.61947800;9.05303100;2023-06-14T04:02:53;95646.53;;;10.53;75.96
7824;BME280;3957;48.61947800;9.05303100;2023-06-14T04:03:56;95652.09;;;10.58;75.92
7824;BME280;3957;48.61947800;9.05303100;2023-06-14T04:05:00;95648.16;;;10.61;75.75
7824;BME280;3957;48.61947800;9.05303100;2023-06-14T04:06:04;95653.88;;;10.64;74.60
7824;BME280;3957;48.61947800;9.05303100;2023-06-14T04:07:06;95655.31;;;10.67;73.47
7824;BME280;3957;48.61947800;9.05303100;2023-06-14T04:08:10;95653.19;;;10.76;73.72
7824;BME280;3957;48.61947800;9.05303100;2023-06-14T04:09:12;95657.03;;;10.86;73.58
7824;BME280;3957;48.61947800;9.05303100;2023-06-14T04:10:16;95651.88;;;10.92;73.53
7824;BME280;3957;48.61947800;9.05303100;2023-06-14T04:11:19;95665.13;;;11.12;73.04
7824;BME280;3957;48.61947800;9.05303100;2023-06-14T04:12:21;95658.56;;;11.33;72.30
7824;BME280;3957;48.61947800;9.05303100;2023-06-14T04:13:22;95656.03;;;11.63;71.29
7824;BME280;3957;48.61947800;9.05303100;2023-06-14T04:14:24;95663.31;;;12.00;69.17
7824;BME280;3957;48.61947800;9.05303100;2023-06-14T04:15:26;95663.75;;;12.34;67.43
7824;BME280;3957;48.61947800;9.05303100;2023-06-14T04:16:30;95660.63;;;12.67;65.17
7824;BME280;3957;48.61947800;9.05303100;2023-06-14T04:17:34;95660.88;;;13.08;63.37
7824;BME280;3957;48.61947800;9.05303100;2023-06-14T04:18:37;95659.00;;;13.51;61.74
7824;BME280;3957;48.61947800;9.05303100;2023-06-14T04:19:39;95657.00;;;13.93;59.77
7824;BME280;3957;48.61947800;9.05303100;2023-06-14T04:20:41;95658.19;;;14.38;57.98
7824;BME280;3957;48.61947800;9.05303100;2023-06-14T04:21:43;95667.09;;;14.79;57.22
7824;BME280;3957;48.61947800;9.05303100;2023-06-14T04:22:45;95665.88;;;15.33;56.27
7824;BME280;3957;48.61947800;9.05303100;2023-06-14T04:23:47;95669.16;;;15.69;54.29
7824;BME280;3957;48.61947800;9.05303100;2023-06-14T04:24:49;95665.69;;;16.08;52.94
7824;BME280;3957;48.61947800;9.05303100;2023-06-14T04:26:05;95671.38;;;16.51;51.21
7824;BME280;3957;48.61947800;9.05303100;2023-06-14T04:27:07;95672.66;;;16.70;51.11
7824;BME280;3957;48.61947800;9.05303100;2023-06-14T04:28:11;95671.44;;;16.83;49.45
7824;BME280;3957;48.61947800;9.05303100;2023-06-14T04:29:16;95670.25;;;17.23;50.66
7824;BME280;3957;48.61947800;9.05303100;2023-06-14T04:30:23;95670.00;;;17.57;50.09
7824;BME280;3957;48.61947800;9.05303100;2023-06-14T04:31:31;95671.94;;;17.94;48.14
7824;BME280;3957;48.61947800;9.05303100;2023-06-14T04:32:40;95670.50;;;18.29;46.78
7824;BME280;3957;48.61947800;9.05303100;2023-06-14T04:33:45;95669.03;;;18.69;46.88
7824;BME280;3957;48.61947800;9.05303100;2023-06-14T04:34:58;95666.47;;;19.06;45.98
7824;BME280;3957;48.61947800;9.05303100;2023-06-14T04:36:00;95670.31;;;19.35;44.17
7824;BME280;3957;48.61947800;9.05303100;2023-06-14T04:37:02;95677.66;;;19.71;43.98
7824;BME280;3957;48.61947800;9.05303100;2023-06-14T04:38:10;95679.28;;;20.08;43.17
7824;BME280;3957;48.61947800;9.05303100;2023-06-14T04:39:13;95676.72;;;20.53;41.47
7824;BME280;3957;48.61947800;9.05303100;2023-06-14T04:40:15;95677.13;;;20.91;40.43
7824;BME280;3957;48.61947800;9.05303100;2023-06-14T04:41:17;95680.31;;;21.03;39.40
7824;BME280;3957;48.61947800;9.05303100;2023-06-14T04:42:19;95668.84;;;21.12;39.57
7824;BME280;3957;48.61947800;9.05303100;2023-06-14T04:43:22;95672.38;;;21.52;38.90
7824;BME280;3957;48.61947800;9.05303100;2023-06-14T04:44:27;95672.03;;;21.64;39.41
7824;BME280;3957;48.61947800;9.05303100;2023-06-14T04:45:38;95664.03;;;20.98;40.63
7824;BME280;3957;48.61947800;9.05303100;2023-06-14T04:46:42;95680.66;;;20.92;42.17
7824;BME280;3957;48.61947800;9.05303100;2023-06-14T04:47:51;95673.06;;;21.73;42.16
7824;BME280;3957;48.61947800;9.05303100;2023-06-14T04:49:01;95679.41;;;22.22;41.57
7824;BME280;3957;48.61947800;9.05303100;2023-06-14T04:50:04;95680.56;;;22.45;39.77
7824;BME280;3957;48.61947800;9.05303100;2023-06-14T04:51:09;95680.91;;;22.63;37.82
7824;BME280;3957;48.61947800;9.05303100;2023-06-14T04:52:11;95677.72;;;22.99;36.68
7824;BME280;3957;48.61947800;9.05303100;2023-06-14T04:53:17;95684.63;;;23.15;35.87
7824;BME280;3957;48.61947800;9.05303100;2023-06-14T04:54:23;95684.22;;;23.27;34.76
7824;BME280;3957;48.61947800;9.05303100;2023-06-14T04:55:27;95675.25;;;23.21;35.16
7824;BME280;3957;48.61947800;9.05303100;2023-06-14T04:56:29;95683.69;;;23.44;35.07
7824;BME280;3957;48.61947800;9.05303100;2023-06-14T04:57:31;95686.53;;;23.53;36.07
7824;BME280;3957;48.61947800;9.05303100;2023-06-14T04:58:34;95693.47;;;24.30;35.34
7824;BME280;3957;48.61947800;9.05303100;2023-06-14T04:59:36;95692.28;;;24.36;34.53
7824;BME280;3957;48.61947800;9.05303100;2023-06-14T05:00:38;95694.50;;;24.48;33.86
7824;BME280;3957;48.61947800;9.05303100;2023-06-14T05:01:40;95694.25;;;24.77;33.10
7824;BME280;3957;48.61947800;9.05303100;2023-06-14T05:02:42;95702.56;;;25.00;32.73
7824;BME280;3957;48.61947800;9.05303100;2023-06-14T05:03:43;95697.47;;;25.07;34.53
7824;BME280;3957;48.61947800;9.05303100;2023-06-14T05:04:46;95701.16;;;24.75;34.07
7824;BME280;3957;48.61947800;9.05303100;2023-06-14T05:05:49;95702.63;;;25.09;34.54
7824;BME280;3957;48.61947800;9.05303100;2023-06-14T05:06:52;95709.88;;;25.55;32.31
7824;BME280;3957;48.61947800;9.05303100;2023-06-14T05:07:56;95698.66;;;25.66;30.63